sensor_id;sensor_type;location;lat;lon;timestamp;P1;durP1;ratioP1;P2;durP2;ratioP2
39098;SDS011;24844;52.380;7.018;2023-05-07T00:00:33;21.88;;;19.33;;
39098;SDS011;24844;52.380;7.018;2023-05-07T00:02:59;20.02;;;17.85;;
39098;SDS011;24844;52.380;7.018;2023-05-07T00:05:25;20.85;;;17.92;;
39098;SDS011;24844;52.380;7.018;2023-05-07T00:07:51;18.38;;;16.52;;
39098;SDS011;24844;52.380;7.018;2023-05-07T00:10:17;16.13;;;14.43;;
39098;SDS011;24844;52.380;7.018;2023-05-07T00:12:43;19.35;;;16.35;;
39098;SDS011;24844;52.380;7.018;2023-05-07T00:15:09;21.55;;;16.48;;
39098;SDS011;24844;52.380;7.018;2023-05-07T00:17:35;21.13;;;16.05;;
39098;SDS011;24844;52.380;7.018;2023-05-07T00:20:01;21.38;;;16.40;;
39098;SDS011;24844;52.380;7.018;2023-05-07T00:22:28;18.30;;;15.82;;
39098;SDS011;24844;52.380;7.018;2023-05-07T00:24:55;20.10;;;15.70;;
39098;SDS011;24844;52.380;7.018;2023-05-07T00:27:20;24.67;;;16.77;;
39098;SDS011;24844;52.380;7.018;2023-05-07T00:29:46;22.85;;;17.10;;
39098;SDS011;24844;52.380;7.018;2023-05-07T00:32:12;19.90;;;16.63;;
39098;SDS011;24844;52.380;7.018;2023-05-07T00:34:37;25.58;;;18.25;;
39098;SDS011;24844;52.380;7.018;2023-05-07T00:37:04;28.88;;;19.88;;
39098;SDS011;24844;52.380;7.018;2023-05-07T00:39:32;19.57;;;16.27;;
39098;SDS011;24844;52.380;7.018;2023-05-07T00:41:58;24.20;;;18.90;;
39098;SDS011;24844;52.380;7.018;2023-05-07T00:44:23;21.95;;;18.27;;
39098;SDS011;24844;52.380;7.018;2023-05-07T00:46:50;28.42;;;20.05;;
39098;SDS011;24844;52.380;7.018;2023-05-07T00:49:15;23.45;;;18.55;;
39098;SDS011;24844;52.380;7.018;2023-05-07T00:51:41;30.02;;;22.10;;
39098;SDS011;24844;52.380;7.018;2023-05-07T00:54:07;29.50;;;22.75;;
39098;SDS011;24844;52.380;7.018;2023-05-07T00:56:34;28.75;;;22.40;;
39098;SDS011;24844;52.380;7.018;2023-05-07T00:59:00;28.13;;;22.05;;
39098;SDS011;24844;52.380;7.018;2023-05-07T01:01:27;30.27;;;23.30;;
39098;SDS011;24844;52.380;7.018;2023-05-07T01:03:53;29.05;;;21.90;;
39098;SDS011;24844;52.380;7.018;2023-05-07T01:06:18;29.83;;;22.88;;
39098;SDS011;24844;52.380;7.018;2023-05-07T01:08:46;37.28;;;22.58;;
39098;SDS011;24844;52.380;7.018;2023-05-07T01:11:12;33.72;;;26.02;;
39098;SDS011;24844;52.380;7.018;2023-05-07T01:13:39;32.40;;;25.02;;
39098;SDS011;24844;52.380;7.018;2023-05-07T01:16:05;34.83;;;26.05;;
39098;SDS011;24844;52.380;7.018;2023-05-07T01:18:31;33.90;;;24.98;;
39098;SDS011;24844;52.380;7.018;2023-05-07T01:20:58;36.25;;;27.60;;
39098;SDS011;24844;52.380;7.018;2023-05-07T01:23:25;33.50;;;26.00;;
39098;SDS011;24844;52.380;7.018;2023-05-07T01:25:52;33.53;;;27.35;;
39098;SDS011;24844;52.380;7.018;2023-05-07T01:28:18;35.03;;;27.45;;
39098;SDS011;24844;52.380;7.018;2023-05-07T01:30:45;35.28;;;27.20;;
39098;SDS011;24844;52.380;7.018;2023-05-07T01:35:41;29.33;;;24.30;;
39098;SDS011;24844;52.380;7.018;2023-05-07T01:38:08;35.05;;;28.20;;
39098;SDS011;24844;52.380;7.018;2023-05-07T01:40:34;41.28;;;29.25;;
39098;SDS011;24844;52.380;7.018;2023-05-07T01:43:03;36.70;;;28.20;;
39098;SDS011;24844;52.380;7.018;2023-05-07T01:45:30;39.78;;;27.90;;
39098;SDS011;24844;52.380;7.018;2023-05-07T01:47:56;39.83;;;29.25;;
39098;SDS011;24844;52.380;7.018;2023-05-07T01:50:23;40.60;;;29.95;;
39098;SDS011;24844;52.380;7.018;2023-05-07T01:52:50;34.30;;;27.92;;
39098;SDS011;24844;52.380;7.018;2023-05-07T01:55:17;38.90;;;29.08;;
39098;SDS011;24844;52.380;7.018;2023-05-07T01:57:42;35.22;;;29.02;;
39098;SDS011;24844;52.380;7.018;2023-05-07T02:00:08;37.10;;;29.25;;
39098;SDS011;24844;52.380;7.018;2023-05-07T02:02:34;31.55;;;24.92;;
39098;SDS011;24844;52.380;7.018;2023-05-07T02:05:00;38.20;;;30.23;;
39098;SDS011;24844;52.380;7.018;2023-05-07T02:07:26;40.05;;;29.98;;
39098;SDS011;24844;52.380;7.018;2023-05-07T02:09:52;40.83;;;32.00;;
39098;SDS011;24844;52.380;7.018;2023-05-07T02:12:18;41.45;;;31.25;;
39098;SDS011;24844;52.380;7.018;2023-05-07T02:14:44;39.85;;;28.95;;
39098;SDS011;24844;52.380;7.018;2023-05-07T02:17:09;39.67;;;30.52;;
39098;SDS011;24844;52.380;7.018;2023-05-07T02:19:35;39.10;;;30.65;;
39098;SDS011;24844;52.380;7.018;2023-05-07T02:22:00;38.13;;;30.92;;
39098;SDS011;24844;52.380;7.018;2023-05-07T02:24:26;36.40;;;26.92;;
39098;SDS011;24844;52.380;7.018;2023-05-07T02:26:51;39.55;;;31.00;;
39098;SDS011;24844;52.380;7.018;2023-05-07T02:29:17;35.17;;;27.75;;
39098;SDS011;24844;52.380;7.018;2023-05-07T02:31:42;38.45;;;30.77;;
39098;SDS011;24844;52.380;7.018;2023-05-07T02:34:08;36.17;;;27.25;;
39098;SDS011;24844;52.380;7.018;2023-05-07T02:36:34;41.38;;;31.08;;
39098;SDS011;24844;52.380;7.018;2023-05-07T02:39:00;40.65;;;31.17;;
39098;SDS011;24844;52.380;7.018;2023-05-07T02:41:25;40.90;;;30.70;;
39098;SDS011;24844;52.380;7.018;2023-05-07T02:43:53;39.03;;;30.25;;
39098;SDS011;24844;52.380;7.018;2023-05-07T02:46:18;39.40;;;30.55;;
39098;SDS011;24844;52.380;7.018;2023-05-07T02:48:44;36.85;;;28.85;;
39098;SDS011;24844;52.380;7.018;2023-05-07T02:51:09;39.20;;;31.00;;
39098;SDS011;24844;52.380;7.018;2023-05-07T02:53:35;42.63;;;31.50;;
39098;SDS011;24844;52.380;7.018;2023-05-07T02:56:01;39.80;;;31.23;;
39098;SDS011;24844;52.380;7.018;2023-05-07T02:58:27;40.92;;;31.45;;
39098;SDS011;24844;52.380;7.018;2023-05-07T03:00:53;39.50;;;31.67;;
39098;SDS011;24844;52.380;7.018;2023-05-07T03:03:19;41.03;;;32.75;;
39098;SDS011;24844;52.380;7.018;2023-05-07T03:05:45;44.28;;;33.05;;
39098;SDS011;24844;52.380;7.018;2023-05-07T03:08:11;48.97;;;29.90;;
39098;SDS011;24844;52.380;7.018;2023-05-07T03:10:37;44.55;;;33.35;;
39098;SDS011;24844;52.380;7.018;2023-05-07T03:13:02;43.90;;;33.05;;
39098;SDS011;24844;52.380;7.018;2023-05-07T03:15:28;43.72;;;32.92;;
39098;SDS011;24844;52.380;7.018;2023-05-07T03:17:54;45.80;;;33.50;;
39098;SDS011;24844;52.380;7.018;2023-05-07T03:20:19;50.28;;;35.05;;
39098;SDS011;24844;52.380;7.018;2023-05-07T03:22:45;44.63;;;32.88;;
39098;SDS011;24844;52.380;7.018;2023-05-07T03:25:10;49.13;;;34.78;;
39098;SDS011;24844;52.380;7.018;2023-05-07T03:27:36;48.20;;;33.15;;
39098;SDS011;24844;52.380;7.018;2023-05-07T03:30:02;42.78;;;32.17;;
39098;SDS011;24844;52.380;7.018;2023-05-07T03:32:27;44.72;;;33.35;;
39098;SDS011;24844;52.380;7.018;2023-05-07T03:34:53;45.83;;;33.17;;
39098;SDS011;24844;52.380;7.018;2023-05-07T03:37:19;49.47;;;32.65;;
39098;SDS011;24844;52.380;7.018;2023-05-07T03:39:44;50.38;;;36.50;;
39098;SDS011;24844;52.380;7.018;2023-05-07T03:42:10;54.35;;;37.90;;
39098;SDS011;24844;52.380;7.018;2023-05-07T03:44:36;46.03;;;33.10;;
39098;SDS011;24844;52.380;7.018;2023-05-07T03:47:02;47.05;;;35.38;;
39098;SDS011;24844;52.380;7.018;2023-05-07T03:49:27;54.35;;;37.85;;
39098;SDS011;24844;52.380;7.018;2023-05-07T03:51:53;45.30;;;34.15;;
39098;SDS011;24844;52.380;7.018;2023-05-07T03:54:19;54.55;;;40.20;;
39098;SDS011;24844;52.380;7.018;2023-05-07T03:56:44;53.55;;;37.05;;
39098;SDS011;24844;52.380;7.018;2023-05-07T03:59:10;56.58;;;36.28;;
39098;SDS011;24844;52.380;7.018;2023-05-07T04:01:36;55.30;;;39.92;;
39098;SDS011;24844;52.380;7.018;2023-05-07T04:04:02;58.85;;;39.17;;
39098;SDS011;24844;52.380;7.018;2023-05-07T04:06:28;54.80;;;37.22;;
39098;SDS011;24844;52.380;7.018;2023-05-07T04:08:53;47.70;;;33.78;;
39098;SDS011;24844;52.380;7.018;2023-05-07T04:11:19;58.78;;;40.97;;
39098;SDS011;24844;52.380;7.018;2023-05-07T04:13:45;59.20;;;41.63;;
39098;SDS011;24844;52.380;7.018;2023-05-07T04:16:10;60.25;;;41.00;;
39098;SDS011;24844;52.380;7.018;2023-05-07T04:18:36;57.85;;;40.50;;
39098;SDS011;24844;52.380;7.018;2023-05-07T04:21:02;61.22;;;39.40;;
39098;SDS011;24844;52.380;7.018;2023-05-07T04:23:27;54.88;;;39.42;;
39098;SDS011;24844;52.380;7.018;2023-05-07T04:25:53;62.95;;;43.42;;
39098;SDS011;24844;52.380;7.018;2023-05-07T04:28:19;63.45;;;41.90;;
39098;SDS011;24844;52.380;7.018;2023-05-07T04:30:45;62.28;;;40.47;;
39098;SDS011;24844;52.380;7.018;2023-05-07T04:33:11;54.88;;;39.72;;
39098;SDS011;24844;52.380;7.018;2023-05-07T04:35:36;61.85;;;43.42;;
39098;SDS011;24844;52.380;7.018;2023-05-07T04:38:02;61.28;;;41.45;;
39098;SDS011;24844;52.380;7.018;2023-05-07T04:40:28;57.53;;;41.25;;
39098;SDS011;24844;52.380;7.018;2023-05-07T04:42:54;62.58;;;42.28;;
39098;SDS011;24844;52.380;7.018;2023-05-07T04:45:19;61.28;;;42.70;;
39098;SDS011;24844;52.380;7.018;2023-05-07T04:47:45;56.47;;;39.70;;
39098;SDS011;24844;52.380;7.018;2023-05-07T04:50:10;55.60;;;41.15;;
39098;SDS011;24844;52.380;7.018;2023-05-07T04:52:36;56.15;;;42.05;;
39098;SDS011;24844;52.380;7.018;2023-05-07T04:55:02;56.08;;;38.00;;
39098;SDS011;24844;52.380;7.018;2023-05-07T04:57:28;59.08;;;42.10;;
39098;SDS011;24844;52.380;7.018;2023-05-07T04:59:54;60.35;;;42.10;;
39098;SDS011;24844;52.380;7.018;2023-05-07T05:02:19;63.20;;;43.45;;
39098;SDS011;24844;52.380;7.018;2023-05-07T05:04:45;61.33;;;42.42;;
39098;SDS011;24844;52.380;7.018;2023-05-07T05:07:11;56.22;;;39.92;;
39098;SDS011;24844;52.380;7.018;2023-05-07T05:09:36;53.72;;;40.72;;
39098;SDS011;24844;52.380;7.018;2023-05-07T05:12:02;59.67;;;41.55;;
39098;SDS011;24844;52.380;7.018;2023-05-07T05:14:28;55.25;;;40.92;;
39098;SDS011;24844;52.380;7.018;2023-05-07T05:16:54;63.38;;;43.15;;
39098;SDS011;24844;52.380;7.018;2023-05-07T05:19:20;54.58;;;40.55;;
39098;SDS011;24844;52.380;7.018;2023-05-07T05:21:45;57.17;;;38.88;;
39098;SDS011;24844;52.380;7.018;2023-05-07T05:24:11;55.88;;;39.67;;
39098;SDS011;24844;52.380;7.018;2023-05-07T05:26:36;61.17;;;43.13;;
39098;SDS011;24844;52.380;7.018;2023-05-07T05:29:02;60.90;;;42.65;;
39098;SDS011;24844;52.380;7.018;2023-05-07T05:31:27;58.40;;;42.05;;
39098;SDS011;24844;52.380;7.018;2023-05-07T05:33:54;54.35;;;41.00;;
39098;SDS011;24844;52.380;7.018;2023-05-07T05:36:20;53.25;;;37.50;;
39098;SDS011;24844;52.380;7.018;2023-05-07T05:38:45;59.22;;;41.30;;
39098;SDS011;24844;52.380;7.018;2023-05-07T05:41:11;53.60;;;40.42;;
39098;SDS011;24844;52.380;7.018;2023-05-07T05:43:36;53.83;;;39.08;;
39098;SDS011;24844;52.380;7.018;2023-05-07T05:46:02;55.85;;;39.08;;
39098;SDS011;24844;52.380;7.018;2023-05-07T05:48:29;56.05;;;35.20;;
39098;SDS011;24844;52.380;7.018;2023-05-07T05:50:55;54.85;;;40.83;;
39098;SDS011;24844;52.380;7.018;2023-05-07T05:53:20;53.08;;;39.90;;
39098;SDS011;24844;52.380;7.018;2023-05-07T05:55:46;50.25;;;37.38;;
39098;SDS011;24844;52.380;7.018;2023-05-07T05:58:11;57.75;;;38.08;;
39098;SDS011;24844;52.380;7.018;2023-05-07T06:00:37;57.05;;;39.08;;
39098;SDS011;24844;52.380;7.018;2023-05-07T06:03:03;54.97;;;38.55;;
39098;SDS011;24844;52.380;7.018;2023-05-07T06:05:28;53.65;;;39.88;;
39098;SDS011;24844;52.380;7.018;2023-05-07T06:07:54;51.78;;;38.25;;
39098;SDS011;24844;52.380;7.018;2023-05-07T06:10:19;51.53;;;39.55;;
39098;SDS011;24844;52.380;7.018;2023-05-07T06:12:45;51.75;;;38.50;;
39098;SDS011;24844;52.380;7.018;2023-05-07T06:15:11;53.38;;;39.45;;
39098;SDS011;24844;52.380;7.018;2023-05-07T06:17:36;52.05;;;38.03;;
39098;SDS011;24844;52.380;7.018;2023-05-07T06:20:02;51.28;;;39.22;;
39098;SDS011;24844;52.380;7.018;2023-05-07T06:22:28;51.08;;;37.90;;
39098;SDS011;24844;52.380;7.018;2023-05-07T06:24:53;51.00;;;37.47;;
39098;SDS011;24844;52.380;7.018;2023-05-07T06:27:19;51.05;;;36.55;;
39098;SDS011;24844;52.380;7.018;2023-05-07T06:29:45;52.83;;;40.15;;
39098;SDS011;24844;52.380;7.018;2023-05-07T06:32:11;47.67;;;36.67;;
39098;SDS011;24844;52.380;7.018;2023-05-07T06:34:38;48.67;;;34.08;;
39098;SDS011;24844;52.380;7.018;2023-05-07T06:37:04;45.08;;;33.38;;
39098;SDS011;24844;52.380;7.018;2023-05-07T06:39:30;43.72;;;33.38;;
39098;SDS011;24844;52.380;7.018;2023-05-07T06:41:56;47.70;;;36.28;;
39098;SDS011;24844;52.380;7.018;2023-05-07T06:44:22;40.45;;;31.45;;
39098;SDS011;24844;52.380;7.018;2023-05-07T06:46:47;47.70;;;34.10;;
39098;SDS011;24844;52.380;7.018;2023-05-07T06:49:13;48.08;;;35.55;;
39098;SDS011;24844;52.380;7.018;2023-05-07T06:51:40;46.58;;;35.13;;
39098;SDS011;24844;52.380;7.018;2023-05-07T06:54:05;45.45;;;33.38;;
39098;SDS011;24844;52.380;7.018;2023-05-07T06:56:31;43.35;;;33.42;;
39098;SDS011;24844;52.380;7.018;2023-05-07T06:58:57;44.78;;;33.10;;
39098;SDS011;24844;52.380;7.018;2023-05-07T07:01:24;43.65;;;32.33;;
39098;SDS011;24844;52.380;7.018;2023-05-07T07:03:50;43.85;;;32.63;;
39098;SDS011;24844;52.380;7.018;2023-05-07T07:06:16;41.92;;;31.73;;
39098;SDS011;24844;52.380;7.018;2023-05-07T07:08:42;46.97;;;34.25;;
39098;SDS011;24844;52.380;7.018;2023-05-07T07:11:08;38.42;;;29.77;;
39098;SDS011;24844;52.380;7.018;2023-05-07T07:13:35;44.70;;;34.50;;
39098;SDS011;24844;52.380;7.018;2023-05-07T07:16:00;43.00;;;32.42;;
39098;SDS011;24844;52.380;7.018;2023-05-07T07:18:26;42.05;;;33.92;;
39098;SDS011;24844;52.380;7.018;2023-05-07T07:20:51;40.92;;;32.65;;
39098;SDS011;24844;52.380;7.018;2023-05-07T07:23:17;42.65;;;32.90;;
39098;SDS011;24844;52.380;7.018;2023-05-07T07:25:43;42.95;;;32.88;;
39098;SDS011;24844;52.380;7.018;2023-05-07T07:28:08;38.15;;;29.88;;
39098;SDS011;24844;52.380;7.018;2023-05-07T07:30:35;41.58;;;31.80;;
39098;SDS011;24844;52.380;7.018;2023-05-07T07:33:01;41.83;;;32.72;;
39098;SDS011;24844;52.380;7.018;2023-05-07T07:35:31;38.33;;;30.42;;
39098;SDS011;24844;52.380;7.018;2023-05-07T07:37:57;43.40;;;32.30;;
39098;SDS011;24844;52.380;7.018;2023-05-07T07:40:23;40.03;;;31.55;;
39098;SDS011;24844;52.380;7.018;2023-05-07T07:42:49;37.45;;;29.80;;
39098;SDS011;24844;52.380;7.018;2023-05-07T07:45:15;39.33;;;29.55;;
39098;SDS011;24844;52.380;7.018;2023-05-07T07:47:41;40.72;;;29.50;;
39098;SDS011;24844;52.380;7.018;2023-05-07T07:50:07;32.67;;;25.67;;
39098;SDS011;24844;52.380;7.018;2023-05-07T07:52:33;36.65;;;28.42;;
39098;SDS011;24844;52.380;7.018;2023-05-07T07:54:59;36.78;;;28.80;;
39098;SDS011;24844;52.380;7.018;2023-05-07T07:57:25;34.20;;;28.63;;
39098;SDS011;24844;52.380;7.018;2023-05-07T07:59:51;35.95;;;28.15;;
39098;SDS011;24844;52.380;7.018;2023-05-07T08:02:16;31.30;;;25.60;;
39098;SDS011;24844;52.380;7.018;2023-05-07T08:04:42;38.08;;;28.83;;
39098;SDS011;24844;52.380;7.018;2023-05-07T08:07:08;33.53;;;26.17;;
39098;SDS011;24844;52.380;7.018;2023-05-07T08:09:35;35.25;;;26.92;;
39098;SDS011;24844;52.380;7.018;2023-05-07T08:12:00;37.22;;;28.63;;
39098;SDS011;24844;52.380;7.018;2023-05-07T08:14:26;35.47;;;27.92;;
39098;SDS011;24844;52.380;7.018;2023-05-07T08:16:53;31.30;;;24.85;;
39098;SDS011;24844;52.380;7.018;2023-05-07T08:19:19;38.33;;;28.20;;
39098;SDS011;24844;52.380;7.018;2023-05-07T08:21:45;33.47;;;27.17;;
39098;SDS011;24844;52.380;7.018;2023-05-07T08:24:12;35.53;;;26.95;;
39098;SDS011;24844;52.380;7.018;2023-05-07T08:26:38;29.35;;;24.15;;
39098;SDS011;24844;52.380;7.018;2023-05-07T08:29:04;33.13;;;26.52;;
39098;SDS011;24844;52.380;7.018;2023-05-07T08:31:30;34.05;;;26.98;;
39098;SDS011;24844;52.380;7.018;2023-05-07T08:33:57;34.95;;;26.60;;
39098;SDS011;24844;52.380;7.018;2023-05-07T08:36:23;33.72;;;27.92;;
39098;SDS011;24844;52.380;7.018;2023-05-07T08:38:49;30.92;;;26.13;;
39098;SDS011;24844;52.380;7.018;2023-05-07T08:41:15;36.42;;;27.25;;
39098;SDS011;24844;52.380;7.018;2023-05-07T08:43:41;31.50;;;25.40;;
39098;SDS011;24844;52.380;7.018;2023-05-07T08:46:09;29.58;;;24.50;;
39098;SDS011;24844;52.380;7.018;2023-05-07T08:48:36;33.45;;;26.58;;
39098;SDS011;24844;52.380;7.018;2023-05-07T08:51:02;33.80;;;26.10;;
39098;SDS011;24844;52.380;7.018;2023-05-07T08:53:28;31.08;;;25.63;;
39098;SDS011;24844;52.380;7.018;2023-05-07T08:55:53;30.40;;;26.10;;
39098;SDS011;24844;52.380;7.018;2023-05-07T08:58:19;31.63;;;26.10;;
39098;SDS011;24844;52.380;7.018;2023-05-07T09:00:45;34.50;;;25.23;;
39098;SDS011;24844;52.380;7.018;2023-05-07T09:03:12;30.20;;;24.98;;
39098;SDS011;24844;52.380;7.018;2023-05-07T09:05:39;31.52;;;25.38;;
39098;SDS011;24844;52.380;7.018;2023-05-07T09:08:05;32.80;;;25.52;;
39098;SDS011;24844;52.380;7.018;2023-05-07T09:10:32;32.03;;;24.23;;
39098;SDS011;24844;52.380;7.018;2023-05-07T09:12:59;32.80;;;23.85;;
39098;SDS011;24844;52.380;7.018;2023-05-07T09:15:26;28.02;;;22.67;;
39098;SDS011;24844;52.380;7.018;2023-05-07T09:17:53;30.20;;;24.33;;
39098;SDS011;24844;52.380;7.018;2023-05-07T09:20:18;32.13;;;26.52;;
39098;SDS011;24844;52.380;7.018;2023-05-07T09:22:44;32.85;;;26.08;;
39098;SDS011;24844;52.380;7.018;2023-05-07T09:25:10;32.20;;;25.35;;
39098;SDS011;24844;52.380;7.018;2023-05-07T09:27:36;35.10;;;27.08;;
39098;SDS011;24844;52.380;7.018;2023-05-07T09:30:05;34.90;;;27.35;;
39098;SDS011;24844;52.380;7.018;2023-05-07T09:32:35;30.13;;;22.98;;
39098;SDS011;24844;52.380;7.018;2023-05-07T09:35:03;31.02;;;24.98;;
39098;SDS011;24844;52.380;7.018;2023-05-07T09:37:30;29.88;;;22.92;;
39098;SDS011;24844;52.380;7.018;2023-05-07T09:39:56;27.92;;;22.52;;
39098;SDS011;24844;52.380;7.018;2023-05-07T09:42:24;27.70;;;23.10;;
39098;SDS011;24844;52.380;7.018;2023-05-07T09:44:51;30.05;;;24.25;;
39098;SDS011;24844;52.380;7.018;2023-05-07T09:47:20;33.47;;;25.40;;
39098;SDS011;24844;52.380;7.018;2023-05-07T09:49:49;28.67;;;21.30;;
39098;SDS011;24844;52.380;7.018;2023-05-07T09:52:20;28.63;;;23.63;;
39098;SDS011;24844;52.380;7.018;2023-05-07T09:54:45;27.48;;;22.48;;
39098;SDS011;24844;52.380;7.018;2023-05-07T09:57:13;27.88;;;23.45;;
39098;SDS011;24844;52.380;7.018;2023-05-07T09:59:39;31.33;;;25.30;;
39098;SDS011;24844;52.380;7.018;2023-05-07T10:02:09;27.10;;;22.75;;
39098;SDS011;24844;52.380;7.018;2023-05-07T10:04:35;31.27;;;24.67;;
39098;SDS011;24844;52.380;7.018;2023-05-07T10:07:01;26.77;;;22.52;;
39098;SDS011;24844;52.380;7.018;2023-05-07T10:09:29;26.17;;;21.70;;
39098;SDS011;24844;52.380;7.018;2023-05-07T10:11:55;23.90;;;21.10;;
39098;SDS011;24844;52.380;7.018;2023-05-07T10:14:22;27.17;;;22.10;;
39098;SDS011;24844;52.380;7.018;2023-05-07T10:16:48;27.80;;;21.58;;
39098;SDS011;24844;52.380;7.018;2023-05-07T10:19:14;32.28;;;24.13;;
39098;SDS011;24844;52.380;7.018;2023-05-07T10:21:42;32.47;;;23.70;;
39098;SDS011;24844;52.380;7.018;2023-05-07T10:24:15;25.50;;;21.58;;
39098;SDS011;24844;52.380;7.018;2023-05-07T10:26:45;32.30;;;23.23;;
39098;SDS011;24844;52.380;7.018;2023-05-07T10:29:15;26.55;;;22.55;;
39098;SDS011;24844;52.380;7.018;2023-05-07T10:31:59;25.52;;;22.40;;
39098;SDS011;24844;52.380;7.018;2023-05-07T10:34:37;27.60;;;22.88;;
39098;SDS011;24844;52.380;7.018;2023-05-07T10:37:08;29.35;;;22.98;;
39098;SDS011;24844;52.380;7.018;2023-05-07T10:39:35;26.02;;;22.20;;
39098;SDS011;24844;52.380;7.018;2023-05-07T10:42:08;23.63;;;18.25;;
39098;SDS011;24844;52.380;7.018;2023-05-07T10:44:37;25.88;;;20.15;;
39098;SDS011;24844;52.380;7.018;2023-05-07T10:47:10;26.38;;;20.90;;
39098;SDS011;24844;52.380;7.018;2023-05-07T10:49:38;23.63;;;19.25;;
39098;SDS011;24844;52.380;7.018;2023-05-07T10:52:31;21.63;;;17.33;;
39098;SDS011;24844;52.380;7.018;2023-05-07T10:55:39;23.33;;;18.10;;
39098;SDS011;24844;52.380;7.018;2023-05-07T10:57:46;20.98;;;16.65;;
39098;SDS011;24844;52.380;7.018;2023-05-07T11:05:24;23.95;;;19.90;;
39098;SDS011;24844;52.380;7.018;2023-05-07T11:07:54;26.48;;;19.52;;
39098;SDS011;24844;52.380;7.018;2023-05-07T11:10:20;27.40;;;20.38;;
39098;SDS011;24844;52.380;7.018;2023-05-07T11:12:47;21.33;;;17.20;;
39098;SDS011;24844;52.380;7.018;2023-05-07T11:15:13;22.75;;;18.33;;
39098;SDS011;24844;52.380;7.018;2023-05-07T11:17:53;20.83;;;17.45;;
39098;SDS011;24844;52.380;7.018;2023-05-07T11:20:20;24.50;;;17.58;;
39098;SDS011;24844;52.380;7.018;2023-05-07T11:22:46;20.30;;;16.65;;
39098;SDS011;24844;52.380;7.018;2023-05-07T11:25:18;23.70;;;18.83;;
39098;SDS011;24844;52.380;7.018;2023-05-07T11:27:44;21.48;;;18.27;;
39098;SDS011;24844;52.380;7.018;2023-05-07T11:30:10;20.48;;;17.98;;
39098;SDS011;24844;52.380;7.018;2023-05-07T11:32:37;20.25;;;16.27;;
39098;SDS011;24844;52.380;7.018;2023-05-07T11:35:04;20.60;;;17.23;;
39098;SDS011;24844;52.380;7.018;2023-05-07T11:37:32;20.33;;;16.00;;
39098;SDS011;24844;52.380;7.018;2023-05-07T11:40:07;19.17;;;15.57;;
39098;SDS011;24844;52.380;7.018;2023-05-07T11:42:39;19.70;;;16.27;;
39098;SDS011;24844;52.380;7.018;2023-05-07T11:45:08;21.10;;;16.80;;
39098;SDS011;24844;52.380;7.018;2023-05-07T11:47:36;17.15;;;15.32;;
39098;SDS011;24844;52.380;7.018;2023-05-07T11:50:03;17.80;;;15.52;;
39098;SDS011;24844;52.380;7.018;2023-05-07T11:52:31;21.00;;;16.52;;
39098;SDS011;24844;52.380;7.018;2023-05-07T11:54:58;23.52;;;16.77;;
39098;SDS011;24844;52.380;7.018;2023-05-07T11:57:25;20.75;;;15.63;;
39098;SDS011;24844;52.380;7.018;2023-05-07T11:59:57;18.15;;;16.20;;
39098;SDS011;24844;52.380;7.018;2023-05-07T12:02:26;17.20;;;14.63;;
39098;SDS011;24844;52.380;7.018;2023-05-07T12:04:53;19.58;;;16.23;;
39098;SDS011;24844;52.380;7.018;2023-05-07T12:07:19;16.25;;;14.18;;
39098;SDS011;24844;52.380;7.018;2023-05-07T12:09:46;17.02;;;14.95;;
39098;SDS011;24844;52.380;7.018;2023-05-07T12:12:12;19.65;;;15.63;;
39098;SDS011;24844;52.380;7.018;2023-05-07T12:14:44;18.77;;;16.33;;
39098;SDS011;24844;52.380;7.018;2023-05-07T12:17:10;16.20;;;14.55;;
39098;SDS011;24844;52.380;7.018;2023-05-07T12:19:38;15.60;;;13.47;;
39098;SDS011;24844;52.380;7.018;2023-05-07T12:22:05;15.35;;;12.95;;
39098;SDS011;24844;52.380;7.018;2023-05-07T12:27:10;18.77;;;16.70;;
39098;SDS011;24844;52.380;7.018;2023-05-07T12:29:36;18.27;;;15.38;;
39098;SDS011;24844;52.380;7.018;2023-05-07T12:32:04;19.67;;;16.15;;
39098;SDS011;24844;52.380;7.018;2023-05-07T12:34:31;18.00;;;14.02;;
39098;SDS011;24844;52.380;7.018;2023-05-07T12:37:01;17.38;;;12.65;;
39098;SDS011;24844;52.380;7.018;2023-05-07T12:39:29;18.92;;;14.98;;
39098;SDS011;24844;52.380;7.018;2023-05-07T12:41:58;17.80;;;13.68;;
39098;SDS011;24844;52.380;7.018;2023-05-07T12:44:31;17.38;;;13.65;;
39098;SDS011;24844;52.380;7.018;2023-05-07T12:46:58;19.30;;;15.75;;
39098;SDS011;24844;52.380;7.018;2023-05-07T12:49:26;20.48;;;15.23;;
39098;SDS011;24844;52.380;7.018;2023-05-07T12:51:52;19.50;;;14.25;;
39098;SDS011;24844;52.380;7.018;2023-05-07T12:54:28;15.27;;;13.65;;
39098;SDS011;24844;52.380;7.018;2023-05-07T12:57:13;18.52;;;16.25;;
39098;SDS011;24844;52.380;7.018;2023-05-07T12:59:41;17.27;;;14.73;;
39098;SDS011;24844;52.380;7.018;2023-05-07T13:02:07;15.88;;;13.10;;
39098;SDS011;24844;52.380;7.018;2023-05-07T13:04:33;16.27;;;14.07;;
39098;SDS011;24844;52.380;7.018;2023-05-07T13:07:00;14.98;;;13.38;;
39098;SDS011;24844;52.380;7.018;2023-05-07T13:09:26;12.48;;;11.13;;
39098;SDS011;24844;52.380;7.018;2023-05-07T13:11:53;15.05;;;13.15;;
39098;SDS011;24844;52.380;7.018;2023-05-07T13:14:18;15.95;;;12.40;;
39098;SDS011;24844;52.380;7.018;2023-05-07T13:16:45;18.70;;;14.45;;
39098;SDS011;24844;52.380;7.018;2023-05-07T13:19:11;13.55;;;11.32;;
39098;SDS011;24844;52.380;7.018;2023-05-07T13:21:37;14.50;;;13.00;;
39098;SDS011;24844;52.380;7.018;2023-05-07T13:24:02;16.67;;;12.95;;
39098;SDS011;24844;52.380;7.018;2023-05-07T13:26:29;14.05;;;12.57;;
39098;SDS011;24844;52.380;7.018;2023-05-07T13:28:56;17.17;;;12.50;;
39098;SDS011;24844;52.380;7.018;2023-05-07T13:31:21;15.43;;;12.38;;
39098;SDS011;24844;52.380;7.018;2023-05-07T13:33:47;13.57;;;12.13;;
39098;SDS011;24844;52.380;7.018;2023-05-07T13:36:13;13.60;;;12.15;;
39098;SDS011;24844;52.380;7.018;2023-05-07T13:38:41;13.35;;;11.40;;
39098;SDS011;24844;52.380;7.018;2023-05-07T13:43:32;12.15;;;9.43;;
39098;SDS011;24844;52.380;7.018;2023-05-07T13:45:58;14.05;;;12.55;;
39098;SDS011;24844;52.380;7.018;2023-05-07T13:48:24;15.65;;;13.15;;
39098;SDS011;24844;52.380;7.018;2023-05-07T13:50:50;12.70;;;11.00;;
39098;SDS011;24844;52.380;7.018;2023-05-07T13:53:16;14.10;;;11.10;;
39098;SDS011;24844;52.380;7.018;2023-05-07T13:55:43;14.38;;;11.60;;
39098;SDS011;24844;52.380;7.018;2023-05-07T13:58:09;15.10;;;11.45;;
39098;SDS011;24844;52.380;7.018;2023-05-07T14:00:34;12.82;;;11.52;;
39098;SDS011;24844;52.380;7.018;2023-05-07T14:03:02;11.85;;;10.65;;
39098;SDS011;24844;52.380;7.018;2023-05-07T14:05:29;14.60;;;11.05;;
39098;SDS011;24844;52.380;7.018;2023-05-07T14:07:55;12.77;;;10.45;;
39098;SDS011;24844;52.380;7.018;2023-05-07T14:10:22;14.32;;;10.90;;
39098;SDS011;24844;52.380;7.018;2023-05-07T14:12:47;10.07;;;8.77;;
39098;SDS011;24844;52.380;7.018;2023-05-07T14:15:13;12.52;;;10.82;;
39098;SDS011;24844;52.380;7.018;2023-05-07T14:17:39;13.02;;;11.73;;
39098;SDS011;24844;52.380;7.018;2023-05-07T14:20:05;10.88;;;8.82;;
39098;SDS011;24844;52.380;7.018;2023-05-07T14:22:31;14.52;;;11.05;;
39098;SDS011;24844;52.380;7.018;2023-05-07T14:24:57;11.82;;;10.20;;
39098;SDS011;24844;52.380;7.018;2023-05-07T14:27:23;9.85;;;8.68;;
39098;SDS011;24844;52.380;7.018;2023-05-07T14:29:48;11.07;;;9.45;;